Terminal Aerodrome Forecast
Issued by NWS Albany, NY

Current Version | Previous Version | Text Only | Print | Product List | Glossary On
Versions: 1 2 3 4 5 6 7 8 9 10 11 12 13 14 15 16 17 18 19 20 21 22 23
000
FTUS41 KALY 190500
TAFALB
TAF
KALB 190532Z 1906/2006 30012KT P6SM FEW025 SCT035 OVC045
     FM191000 31008KT P6SM BKN025 OVC040
     FM191800 32012KT P6SM SCT025 BKN040
     FM200000 33006KT P6SM BKN025=

USA.gov is the U.S. government's official web portal to all federal, state and local government web resources and services.